sensor_id;sensor_type;location;lat;lon;timestamp;P1;durP1;ratioP1;P2;durP2;ratioP2
64789;SDS011;51223;51.816;5.862;2022-10-18T00:01:51;4.85;;;3.38;;
64789;SDS011;51223;51.816;5.862;2022-10-18T00:04:17;5.20;;;3.70;;
64789;SDS011;51223;51.816;5.862;2022-10-18T00:06:43;8.07;;;4.03;;
64789;SDS011;51223;51.816;5.862;2022-10-18T00:09:09;14.48;;;3.65;;
64789;SDS011;51223;51.816;5.862;2022-10-18T00:11:35;5.80;;;3.13;;
64789;SDS011;51223;51.816;5.862;2022-10-18T00:14:02;7.93;;;4.25;;
64789;SDS011;51223;51.816;5.862;2022-10-18T00:16:28;5.82;;;3.78;;
64789;SDS011;51223;51.816;5.862;2022-10-18T00:18:54;9.10;;;4.28;;
64789;SDS011;51223;51.816;5.862;2022-10-18T00:21:21;6.72;;;3.80;;
64789;SDS011;51223;51.816;5.862;2022-10-18T00:23:49;4.65;;;3.05;;
64789;SDS011;51223;51.816;5.862;2022-10-18T00:26:17;4.32;;;2.63;;
64789;SDS011;51223;51.816;5.862;2022-10-18T00:28:44;4.95;;;3.08;;
64789;SDS011;51223;51.816;5.862;2022-10-18T00:31:12;3.70;;;2.97;;
64789;SDS011;51223;51.816;5.862;2022-10-18T00:33:39;2.72;;;1.90;;
64789;SDS011;51223;51.816;5.862;2022-10-18T00:36:06;5.07;;;3.60;;
64789;SDS011;51223;51.816;5.862;2022-10-18T00:38:32;6.88;;;3.85;;
64789;SDS011;51223;51.816;5.862;2022-10-18T00:40:58;4.28;;;3.45;;
64789;SDS011;51223;51.816;5.862;2022-10-18T00:43:24;6.15;;;3.85;;
64789;SDS011;51223;51.816;5.862;2022-10-18T00:45:49;6.05;;;3.90;;
64789;SDS011;51223;51.816;5.862;2022-10-18T00:48:15;7.22;;;2.95;;
64789;SDS011;51223;51.816;5.862;2022-10-18T00:50:44;6.35;;;2.97;;
64789;SDS011;51223;51.816;5.862;2022-10-18T00:53:12;11.77;;;2.78;;
64789;SDS011;51223;51.816;5.862;2022-10-18T00:55:41;9.73;;;3.45;;
64789;SDS011;51223;51.816;5.862;2022-10-18T00:58:07;3.38;;;2.58;;
64789;SDS011;51223;51.816;5.862;2022-10-18T01:00:34;6.38;;;2.88;;
64789;SDS011;51223;51.816;5.862;2022-10-18T01:03:04;4.53;;;3.38;;
64789;SDS011;51223;51.816;5.862;2022-10-18T01:05:30;4.55;;;3.33;;
64789;SDS011;51223;51.816;5.862;2022-10-18T01:16:07;5.30;;;3.90;;
64789;SDS011;51223;51.816;5.862;2022-10-18T01:21:50;4.93;;;3.95;;
64789;SDS011;51223;51.816;5.862;2022-10-18T01:24:46;5.90;;;3.28;;
64789;SDS011;51223;51.816;5.862;2022-10-18T01:30:26;8.98;;;4.93;;
64789;SDS011;51223;51.816;5.862;2022-10-18T01:33:12;8.02;;;4.10;;
64789;SDS011;51223;51.816;5.862;2022-10-18T01:35:40;4.72;;;3.40;;
64789;SDS011;51223;51.816;5.862;2022-10-18T01:38:12;7.05;;;2.97;;
64789;SDS011;51223;51.816;5.862;2022-10-18T01:40:42;6.60;;;3.47;;
64789;SDS011;51223;51.816;5.862;2022-10-18T01:43:12;5.95;;;4.00;;
64789;SDS011;51223;51.816;5.862;2022-10-18T01:45:40;10.35;;;3.47;;
64789;SDS011;51223;51.816;5.862;2022-10-18T01:48:06;8.77;;;3.20;;
64789;SDS011;51223;51.816;5.862;2022-10-18T01:50:34;3.85;;;3.03;;
64789;SDS011;51223;51.816;5.862;2022-10-18T01:53:00;3.83;;;2.88;;
64789;SDS011;51223;51.816;5.862;2022-10-18T01:55:31;4.78;;;2.72;;
64789;SDS011;51223;51.816;5.862;2022-10-18T01:58:09;12.70;;;3.97;;
64789;SDS011;51223;51.816;5.862;2022-10-18T02:00:47;9.85;;;3.92;;
64789;SDS011;51223;51.816;5.862;2022-10-18T02:03:22;3.97;;;2.75;;
64789;SDS011;51223;51.816;5.862;2022-10-18T02:08:27;6.53;;;3.50;;
64789;SDS011;51223;51.816;5.862;2022-10-18T02:16:12;10.25;;;3.40;;
64789;SDS011;51223;51.816;5.862;2022-10-18T02:18:44;5.85;;;3.17;;
64789;SDS011;51223;51.816;5.862;2022-10-18T02:21:15;13.60;;;4.28;;
64789;SDS011;51223;51.816;5.862;2022-10-18T02:23:44;8.20;;;3.92;;
64789;SDS011;51223;51.816;5.862;2022-10-18T02:26:11;4.78;;;3.85;;
64789;SDS011;51223;51.816;5.862;2022-10-18T02:28:38;8.32;;;4.45;;
64789;SDS011;51223;51.816;5.862;2022-10-18T02:31:06;7.20;;;4.25;;
64789;SDS011;51223;51.816;5.862;2022-10-18T02:33:43;13.35;;;4.50;;
64789;SDS011;51223;51.816;5.862;2022-10-18T02:36:26;4.45;;;3.33;;
64789;SDS011;51223;51.816;5.862;2022-10-18T02:38:58;5.93;;;3.92;;
64789;SDS011;51223;51.816;5.862;2022-10-18T02:41:29;6.03;;;4.20;;
64789;SDS011;51223;51.816;5.862;2022-10-18T02:43:55;10.68;;;3.15;;
64789;SDS011;51223;51.816;5.862;2022-10-18T02:46:21;7.93;;;3.85;;
64789;SDS011;51223;51.816;5.862;2022-10-18T02:48:47;7.95;;;3.97;;
64789;SDS011;51223;51.816;5.862;2022-10-18T02:51:13;4.47;;;3.42;;
64789;SDS011;51223;51.816;5.862;2022-10-18T02:53:39;5.65;;;4.40;;
64789;SDS011;51223;51.816;5.862;2022-10-18T02:56:05;9.68;;;4.03;;
64789;SDS011;51223;51.816;5.862;2022-10-18T02:58:31;12.32;;;4.07;;
64789;SDS011;51223;51.816;5.862;2022-10-18T03:00:56;8.88;;;3.58;;
64789;SDS011;51223;51.816;5.862;2022-10-18T03:03:22;3.53;;;2.80;;
64789;SDS011;51223;51.816;5.862;2022-10-18T03:05:48;7.18;;;3.83;;
64789;SDS011;51223;51.816;5.862;2022-10-18T03:08:15;5.65;;;3.90;;
64789;SDS011;51223;51.816;5.862;2022-10-18T03:10:42;7.35;;;4.53;;
64789;SDS011;51223;51.816;5.862;2022-10-18T03:13:09;4.13;;;2.67;;
64789;SDS011;51223;51.816;5.862;2022-10-18T03:15:35;6.00;;;3.95;;
64789;SDS011;51223;51.816;5.862;2022-10-18T03:18:01;9.20;;;4.20;;
64789;SDS011;51223;51.816;5.862;2022-10-18T03:20:27;10.70;;;5.47;;
64789;SDS011;51223;51.816;5.862;2022-10-18T03:22:53;7.70;;;4.38;;
64789;SDS011;51223;51.816;5.862;2022-10-18T03:25:19;6.50;;;4.38;;
64789;SDS011;51223;51.816;5.862;2022-10-18T03:27:45;14.57;;;5.32;;
64789;SDS011;51223;51.816;5.862;2022-10-18T03:30:10;12.95;;;5.88;;
64789;SDS011;51223;51.816;5.862;2022-10-18T03:32:38;8.70;;;4.90;;
64789;SDS011;51223;51.816;5.862;2022-10-18T03:35:04;12.48;;;6.38;;
64789;SDS011;51223;51.816;5.862;2022-10-18T03:37:31;10.10;;;5.43;;
64789;SDS011;51223;51.816;5.862;2022-10-18T03:39:57;7.35;;;5.13;;
64789;SDS011;51223;51.816;5.862;2022-10-18T03:42:23;8.63;;;5.20;;
64789;SDS011;51223;51.816;5.862;2022-10-18T03:44:48;12.63;;;6.35;;
64789;SDS011;51223;51.816;5.862;2022-10-18T03:47:14;10.57;;;5.03;;
64789;SDS011;51223;51.816;5.862;2022-10-18T03:49:40;19.67;;;5.80;;
64789;SDS011;51223;51.816;5.862;2022-10-18T03:52:06;8.82;;;4.65;;
64789;SDS011;51223;51.816;5.862;2022-10-18T03:54:32;10.02;;;5.97;;
64789;SDS011;51223;51.816;5.862;2022-10-18T03:56:57;11.20;;;5.85;;
64789;SDS011;51223;51.816;5.862;2022-10-18T03:59:23;7.57;;;4.30;;
64789;SDS011;51223;51.816;5.862;2022-10-18T04:01:49;7.88;;;4.93;;
64789;SDS011;51223;51.816;5.862;2022-10-18T04:04:15;10.85;;;5.63;;
64789;SDS011;51223;51.816;5.862;2022-10-18T04:06:41;13.38;;;5.63;;
64789;SDS011;51223;51.816;5.862;2022-10-18T04:09:07;8.85;;;4.80;;
64789;SDS011;51223;51.816;5.862;2022-10-18T04:11:33;13.15;;;6.63;;
64789;SDS011;51223;51.816;5.862;2022-10-18T04:13:58;13.32;;;5.13;;
64789;SDS011;51223;51.816;5.862;2022-10-18T04:16:24;11.45;;;5.80;;
64789;SDS011;51223;51.816;5.862;2022-10-18T04:18:50;11.02;;;5.35;;
64789;SDS011;51223;51.816;5.862;2022-10-18T04:21:16;7.88;;;4.65;;
64789;SDS011;51223;51.816;5.862;2022-10-18T04:23:42;9.70;;;5.68;;
64789;SDS011;51223;51.816;5.862;2022-10-18T04:26:08;14.15;;;5.95;;
64789;SDS011;51223;51.816;5.862;2022-10-18T04:28:34;13.30;;;6.50;;
64789;SDS011;51223;51.816;5.862;2022-10-18T04:31:04;11.85;;;6.30;;
64789;SDS011;51223;51.816;5.862;2022-10-18T04:33:30;12.63;;;5.88;;
64789;SDS011;51223;51.816;5.862;2022-10-18T04:35:56;12.00;;;5.25;;
64789;SDS011;51223;51.816;5.862;2022-10-18T04:38:22;8.93;;;5.20;;
64789;SDS011;51223;51.816;5.862;2022-10-18T04:40:48;12.90;;;6.30;;
64789;SDS011;51223;51.816;5.862;2022-10-18T04:43:14;17.88;;;5.72;;
64789;SDS011;51223;51.816;5.862;2022-10-18T04:45:40;11.10;;;5.13;;
64789;SDS011;51223;51.816;5.862;2022-10-18T04:48:06;11.18;;;5.60;;
64789;SDS011;51223;51.816;5.862;2022-10-18T04:50:32;6.45;;;4.05;;
64789;SDS011;51223;51.816;5.862;2022-10-18T04:52:57;9.20;;;5.32;;
64789;SDS011;51223;51.816;5.862;2022-10-18T04:55:23;9.75;;;5.47;;
64789;SDS011;51223;51.816;5.862;2022-10-18T04:57:49;6.65;;;4.72;;
64789;SDS011;51223;51.816;5.862;2022-10-18T05:00:15;8.20;;;5.85;;
64789;SDS011;51223;51.816;5.862;2022-10-18T05:02:41;8.70;;;4.90;;
64789;SDS011;51223;51.816;5.862;2022-10-18T05:05:07;14.30;;;5.40;;
64789;SDS011;51223;51.816;5.862;2022-10-18T05:07:33;9.30;;;5.22;;
64789;SDS011;51223;51.816;5.862;2022-10-18T05:09:59;14.70;;;5.45;;
64789;SDS011;51223;51.816;5.862;2022-10-18T05:12:25;6.15;;;3.67;;
64789;SDS011;51223;51.816;5.862;2022-10-18T05:14:51;8.10;;;4.90;;
64789;SDS011;51223;51.816;5.862;2022-10-18T05:17:16;6.70;;;4.45;;
64789;SDS011;51223;51.816;5.862;2022-10-18T05:19:42;5.50;;;3.55;;
64789;SDS011;51223;51.816;5.862;2022-10-18T05:22:08;5.15;;;3.60;;
64789;SDS011;51223;51.816;5.862;2022-10-18T05:24:34;8.88;;;5.45;;
64789;SDS011;51223;51.816;5.862;2022-10-18T05:27:00;11.80;;;4.70;;
64789;SDS011;51223;51.816;5.862;2022-10-18T05:29:25;6.20;;;3.65;;
64789;SDS011;51223;51.816;5.862;2022-10-18T05:31:52;6.15;;;3.88;;
64789;SDS011;51223;51.816;5.862;2022-10-18T05:34:18;7.18;;;4.03;;
64789;SDS011;51223;51.816;5.862;2022-10-18T05:36:45;7.18;;;4.13;;
64789;SDS011;51223;51.816;5.862;2022-10-18T05:39:11;7.13;;;4.40;;
64789;SDS011;51223;51.816;5.862;2022-10-18T05:41:37;7.40;;;4.05;;
64789;SDS011;51223;51.816;5.862;2022-10-18T05:44:03;6.68;;;4.35;;
64789;SDS011;51223;51.816;5.862;2022-10-18T05:46:30;8.38;;;5.57;;
64789;SDS011;51223;51.816;5.862;2022-10-18T05:48:56;5.97;;;4.03;;
64789;SDS011;51223;51.816;5.862;2022-10-18T05:51:22;6.00;;;3.90;;
64789;SDS011;51223;51.816;5.862;2022-10-18T05:53:48;7.55;;;4.68;;
64789;SDS011;51223;51.816;5.862;2022-10-18T05:56:14;5.57;;;4.35;;
64789;SDS011;51223;51.816;5.862;2022-10-18T05:58:40;8.25;;;3.75;;
64789;SDS011;51223;51.816;5.862;2022-10-18T06:01:07;5.97;;;4.25;;
64789;SDS011;51223;51.816;5.862;2022-10-18T06:03:34;5.90;;;4.35;;
64789;SDS011;51223;51.816;5.862;2022-10-18T06:06:05;4.32;;;3.42;;
64789;SDS011;51223;51.816;5.862;2022-10-18T06:08:32;5.40;;;3.80;;
64789;SDS011;51223;51.816;5.862;2022-10-18T06:10:58;5.88;;;4.20;;
64789;SDS011;51223;51.816;5.862;2022-10-18T06:13:24;5.30;;;3.50;;
64789;SDS011;51223;51.816;5.862;2022-10-18T06:15:54;5.07;;;3.28;;
64789;SDS011;51223;51.816;5.862;2022-10-18T06:18:20;4.65;;;3.90;;
64789;SDS011;51223;51.816;5.862;2022-10-18T06:20:46;4.72;;;2.53;;
64789;SDS011;51223;51.816;5.862;2022-10-18T06:23:12;6.25;;;4.07;;
64789;SDS011;51223;51.816;5.862;2022-10-18T06:25:38;8.38;;;4.30;;
64789;SDS011;51223;51.816;5.862;2022-10-18T06:28:04;6.65;;;4.43;;
64789;SDS011;51223;51.816;5.862;2022-10-18T06:30:30;5.22;;;3.60;;
64789;SDS011;51223;51.816;5.862;2022-10-18T06:32:59;5.90;;;4.05;;
64789;SDS011;51223;51.816;5.862;2022-10-18T06:35:25;9.77;;;4.57;;
64789;SDS011;51223;51.816;5.862;2022-10-18T06:37:51;8.85;;;4.70;;
64789;SDS011;51223;51.816;5.862;2022-10-18T06:40:17;10.10;;;4.97;;
64789;SDS011;51223;51.816;5.862;2022-10-18T06:42:43;8.25;;;4.50;;
64789;SDS011;51223;51.816;5.862;2022-10-18T06:45:10;7.85;;;4.30;;
64789;SDS011;51223;51.816;5.862;2022-10-18T06:47:36;8.95;;;5.65;;
64789;SDS011;51223;51.816;5.862;2022-10-18T06:50:02;7.30;;;4.63;;
64789;SDS011;51223;51.816;5.862;2022-10-18T06:52:28;9.88;;;5.47;;
64789;SDS011;51223;51.816;5.862;2022-10-18T06:54:53;3.95;;;2.85;;
64789;SDS011;51223;51.816;5.862;2022-10-18T06:57:19;6.70;;;3.95;;
64789;SDS011;51223;51.816;5.862;2022-10-18T06:59:45;3.17;;;2.22;;
64789;SDS011;51223;51.816;5.862;2022-10-18T07:02:14;11.73;;;4.00;;
64789;SDS011;51223;51.816;5.862;2022-10-18T07:04:42;5.85;;;3.78;;
64789;SDS011;51223;51.816;5.862;2022-10-18T07:07:07;3.42;;;2.33;;
64789;SDS011;51223;51.816;5.862;2022-10-18T07:09:33;9.00;;;3.38;;
64789;SDS011;51223;51.816;5.862;2022-10-18T07:11:59;5.85;;;3.55;;
64789;SDS011;51223;51.816;5.862;2022-10-18T07:14:25;2.95;;;2.22;;
64789;SDS011;51223;51.816;5.862;2022-10-18T07:16:51;5.32;;;3.28;;
64789;SDS011;51223;51.816;5.862;2022-10-18T07:19:17;7.05;;;4.00;;
64789;SDS011;51223;51.816;5.862;2022-10-18T07:21:42;6.43;;;4.30;;
64789;SDS011;51223;51.816;5.862;2022-10-18T07:24:08;3.92;;;3.10;;
64789;SDS011;51223;51.816;5.862;2022-10-18T07:26:34;9.05;;;4.38;;
64789;SDS011;51223;51.816;5.862;2022-10-18T07:29:03;6.07;;;3.70;;
64789;SDS011;51223;51.816;5.862;2022-10-18T07:31:31;7.38;;;4.03;;
64789;SDS011;51223;51.816;5.862;2022-10-18T07:33:58;7.10;;;4.85;;
64789;SDS011;51223;51.816;5.862;2022-10-18T07:36:24;7.38;;;4.50;;
64789;SDS011;51223;51.816;5.862;2022-10-18T07:38:50;7.25;;;4.40;;
64789;SDS011;51223;51.816;5.862;2022-10-18T07:41:17;5.28;;;3.03;;
64789;SDS011;51223;51.816;5.862;2022-10-18T07:43:44;6.95;;;3.95;;
64789;SDS011;51223;51.816;5.862;2022-10-18T07:46:12;8.40;;;3.95;;
64789;SDS011;51223;51.816;5.862;2022-10-18T07:48:38;5.18;;;3.72;;
64789;SDS011;51223;51.816;5.862;2022-10-18T07:51:04;10.20;;;4.80;;
64789;SDS011;51223;51.816;5.862;2022-10-18T07:53:30;4.43;;;3.25;;
64789;SDS011;51223;51.816;5.862;2022-10-18T07:55:59;6.88;;;4.07;;
64789;SDS011;51223;51.816;5.862;2022-10-18T07:58:26;6.00;;;3.75;;
64789;SDS011;51223;51.816;5.862;2022-10-18T08:00:53;6.63;;;3.92;;
64789;SDS011;51223;51.816;5.862;2022-10-18T08:03:19;5.13;;;2.60;;
64789;SDS011;51223;51.816;5.862;2022-10-18T08:05:51;11.43;;;4.10;;
64789;SDS011;51223;51.816;5.862;2022-10-18T08:08:18;9.68;;;4.55;;
64789;SDS011;51223;51.816;5.862;2022-10-18T08:10:45;8.40;;;4.38;;
64789;SDS011;51223;51.816;5.862;2022-10-18T08:13:10;3.97;;;2.42;;
64789;SDS011;51223;51.816;5.862;2022-10-18T08:15:36;9.98;;;4.88;;
64789;SDS011;51223;51.816;5.862;2022-10-18T08:18:02;6.18;;;3.55;;
64789;SDS011;51223;51.816;5.862;2022-10-18T08:20:28;6.03;;;3.15;;
64789;SDS011;51223;51.816;5.862;2022-10-18T08:22:55;5.78;;;3.17;;
64789;SDS011;51223;51.816;5.862;2022-10-18T08:25:20;5.75;;;3.33;;
64789;SDS011;51223;51.816;5.862;2022-10-18T08:27:46;9.05;;;4.43;;
64789;SDS011;51223;51.816;5.862;2022-10-18T08:30:12;7.85;;;4.53;;
64789;SDS011;51223;51.816;5.862;2022-10-18T08:32:38;8.23;;;4.70;;
64789;SDS011;51223;51.816;5.862;2022-10-18T08:35:04;3.88;;;2.92;;
64789;SDS011;51223;51.816;5.862;2022-10-18T08:37:31;10.57;;;4.68;;
64789;SDS011;51223;51.816;5.862;2022-10-18T08:39:56;4.15;;;2.85;;
64789;SDS011;51223;51.816;5.862;2022-10-18T08:44:49;9.43;;;3.60;;
64789;SDS011;51223;51.816;5.862;2022-10-18T08:47:17;7.78;;;4.22;;
64789;SDS011;51223;51.816;5.862;2022-10-18T08:49:49;7.35;;;4.43;;
64789;SDS011;51223;51.816;5.862;2022-10-18T08:58:01;7.88;;;4.00;;
64789;SDS011;51223;51.816;5.862;2022-10-18T09:00:30;8.10;;;3.28;;
64789;SDS011;51223;51.816;5.862;2022-10-18T09:05:54;12.98;;;4.35;;
64789;SDS011;51223;51.816;5.862;2022-10-18T09:08:31;14.50;;;4.95;;
64789;SDS011;51223;51.816;5.862;2022-10-18T09:11:23;3.33;;;2.72;;
64789;SDS011;51223;51.816;5.862;2022-10-18T09:14:46;10.63;;;5.05;;
64789;SDS011;51223;51.816;5.862;2022-10-18T09:19:25;7.55;;;4.07;;
64789;SDS011;51223;51.816;5.862;2022-10-18T09:24:43;11.65;;;3.80;;
64789;SDS011;51223;51.816;5.862;2022-10-18T09:27:16;6.85;;;3.53;;
64789;SDS011;51223;51.816;5.862;2022-10-18T09:32:22;5.68;;;3.13;;
64789;SDS011;51223;51.816;5.862;2022-10-18T09:35:00;8.50;;;3.63;;
64789;SDS011;51223;51.816;5.862;2022-10-18T09:37:36;4.68;;;3.03;;
64789;SDS011;51223;51.816;5.862;2022-10-18T09:40:16;1.83;;;1.55;;
64789;SDS011;51223;51.816;5.862;2022-10-18T09:43:09;4.57;;;2.80;;
64789;SDS011;51223;51.816;5.862;2022-10-18T09:45:39;5.82;;;2.80;;
64789;SDS011;51223;51.816;5.862;2022-10-18T09:48:12;6.10;;;2.88;;
64789;SDS011;51223;51.816;5.862;2022-10-18T09:51:03;3.78;;;1.40;;
64789;SDS011;51223;51.816;5.862;2022-10-18T09:53:38;3.08;;;1.58;;
64789;SDS011;51223;51.816;5.862;2022-10-18T09:56:16;4.53;;;2.08;;
64789;SDS011;51223;51.816;5.862;2022-10-18T09:58:48;4.65;;;1.85;;
64789;SDS011;51223;51.816;5.862;2022-10-18T10:01:25;3.88;;;2.30;;
64789;SDS011;51223;51.816;5.862;2022-10-18T10:03:53;3.08;;;1.13;;
64789;SDS011;51223;51.816;5.862;2022-10-18T10:06:26;4.93;;;1.80;;
64789;SDS011;51223;51.816;5.862;2022-10-18T10:08:57;8.70;;;1.58;;
64789;SDS011;51223;51.816;5.862;2022-10-18T10:11:36;2.13;;;0.60;;
64789;SDS011;51223;51.816;5.862;2022-10-18T10:16:53;3.45;;;1.15;;
64789;SDS011;51223;51.816;5.862;2022-10-18T10:19:23;0.63;;;0.43;;
64789;SDS011;51223;51.816;5.862;2022-10-18T10:21:50;1.70;;;0.82;;
64789;SDS011;51223;51.816;5.862;2022-10-18T10:24:25;1.70;;;0.63;;
64789;SDS011;51223;51.816;5.862;2022-10-18T10:26:58;9.88;;;1.08;;
64789;SDS011;51223;51.816;5.862;2022-10-18T10:32:11;5.27;;;1.53;;
64789;SDS011;51223;51.816;5.862;2022-10-18T10:34:39;0.32;;;0.30;;
64789;SDS011;51223;51.816;5.862;2022-10-18T10:37:22;2.78;;;1.17;;
64789;SDS011;51223;51.816;5.862;2022-10-18T10:40:14;8.23;;;1.45;;
64789;SDS011;51223;51.816;5.862;2022-10-18T10:45:24;5.35;;;1.35;;
64789;SDS011;51223;51.816;5.862;2022-10-18T10:47:52;8.05;;;1.73;;
64789;SDS011;51223;51.816;5.862;2022-10-18T10:50:26;1.40;;;1.00;;
64789;SDS011;51223;51.816;5.862;2022-10-18T10:52:53;4.95;;;1.42;;
64789;SDS011;51223;51.816;5.862;2022-10-18T10:55:27;4.03;;;1.13;;
64789;SDS011;51223;51.816;5.862;2022-10-18T10:57:58;20.98;;;1.45;;
64789;SDS011;51223;51.816;5.862;2022-10-18T11:05:42;5.13;;;1.38;;
64789;SDS011;51223;51.816;5.862;2022-10-18T11:08:10;0.63;;;0.60;;
64789;SDS011;51223;51.816;5.862;2022-10-18T11:10:41;4.65;;;1.20;;
64789;SDS011;51223;51.816;5.862;2022-10-18T11:13:27;3.65;;;1.13;;
64789;SDS011;51223;51.816;5.862;2022-10-18T11:16:12;0.38;;;0.30;;
64789;SDS011;51223;51.816;5.862;2022-10-18T11:18:46;0.00;;;0.00;;
64789;SDS011;51223;51.816;5.862;2022-10-18T11:21:15;1.10;;;0.65;;
64789;SDS011;51223;51.816;5.862;2022-10-18T11:23:44;2.15;;;0.80;;
64789;SDS011;51223;51.816;5.862;2022-10-18T11:32:01;9.13;;;2.13;;
64789;SDS011;51223;51.816;5.862;2022-10-18T11:34:41;2.90;;;1.02;;
64789;SDS011;51223;51.816;5.862;2022-10-18T11:37:21;0.98;;;0.98;;
64789;SDS011;51223;51.816;5.862;2022-10-18T11:50:52;0.68;;;0.47;;
64789;SDS011;51223;51.816;5.862;2022-10-18T11:56:13;2.03;;;0.57;;
64789;SDS011;51223;51.816;5.862;2022-10-18T11:59:00;2.75;;;0.40;;
64789;SDS011;51223;51.816;5.862;2022-10-18T12:01:37;3.65;;;0.80;;
64789;SDS011;51223;51.816;5.862;2022-10-18T12:04:25;1.35;;;0.40;;
64789;SDS011;51223;51.816;5.862;2022-10-18T12:06:58;3.33;;;1.02;;
64789;SDS011;51223;51.816;5.862;2022-10-18T12:09:27;1.88;;;0.73;;
64789;SDS011;51223;51.816;5.862;2022-10-18T12:12:15;5.82;;;0.57;;
64789;SDS011;51223;51.816;5.862;2022-10-18T12:14:46;2.10;;;0.45;;
64789;SDS011;51223;51.816;5.862;2022-10-18T12:17:19;3.90;;;0.73;;
64789;SDS011;51223;51.816;5.862;2022-10-18T12:19:49;0.80;;;0.43;;
64789;SDS011;51223;51.816;5.862;2022-10-18T12:22:24;3.05;;;0.50;;
64789;SDS011;51223;51.816;5.862;2022-10-18T12:24:55;0.73;;;0.28;;
64789;SDS011;51223;51.816;5.862;2022-10-18T12:27:24;4.70;;;0.82;;
64789;SDS011;51223;51.816;5.862;2022-10-18T12:30:01;1.15;;;0.40;;
64789;SDS011;51223;51.816;5.862;2022-10-18T12:32:33;2.28;;;0.80;;
64789;SDS011;51223;51.816;5.862;2022-10-18T12:35:03;0.50;;;0.50;;
64789;SDS011;51223;51.816;5.862;2022-10-18T12:42:47;0.52;;;0.35;;
64789;SDS011;51223;51.816;5.862;2022-10-18T12:45:25;1.17;;;0.70;;
64789;SDS011;51223;51.816;5.862;2022-10-18T12:47:53;0.98;;;0.57;;
64789;SDS011;51223;51.816;5.862;2022-10-18T12:55:41;2.17;;;0.70;;
64789;SDS011;51223;51.816;5.862;2022-10-18T13:22:09;1.15;;;0.63;;
64789;SDS011;51223;51.816;5.862;2022-10-18T13:28:00;12.48;;;0.95;;
64789;SDS011;51223;51.816;5.862;2022-10-18T13:33:45;0.10;;;0.10;;
64789;SDS011;51223;51.816;5.862;2022-10-18T13:41:25;0.50;;;0.40;;
64789;SDS011;51223;51.816;5.862;2022-10-18T13:43:55;3.33;;;0.95;;
64789;SDS011;51223;51.816;5.862;2022-10-18T13:49:01;2.17;;;0.57;;
64789;SDS011;51223;51.816;5.862;2022-10-18T13:57:25;2.28;;;0.40;;
64789;SDS011;51223;51.816;5.862;2022-10-18T14:08:12;18.40;;;1.40;;
64789;SDS011;51223;51.816;5.862;2022-10-18T14:10:44;1.33;;;0.40;;
64789;SDS011;51223;51.816;5.862;2022-10-18T14:13:22;2.38;;;0.35;;
64789;SDS011;51223;51.816;5.862;2022-10-18T14:15:51;3.08;;;0.50;;
64789;SDS011;51223;51.816;5.862;2022-10-18T14:18:29;0.55;;;0.30;;
64789;SDS011;51223;51.816;5.862;2022-10-18T14:20:58;6.00;;;0.80;;
64789;SDS011;51223;51.816;5.862;2022-10-18T14:23:44;3.70;;;0.85;;
64789;SDS011;51223;51.816;5.862;2022-10-18T14:26:14;2.08;;;0.70;;
64789;SDS011;51223;51.816;5.862;2022-10-18T14:28:41;0.63;;;0.10;;
64789;SDS011;51223;51.816;5.862;2022-10-18T14:31:11;2.53;;;1.08;;
64789;SDS011;51223;51.816;5.862;2022-10-18T14:33:42;0.00;;;0.00;;
64789;SDS011;51223;51.816;5.862;2022-10-18T14:38:53;2.72;;;0.50;;
64789;SDS011;51223;51.816;5.862;2022-10-18T14:43:49;1.52;;;0.38;;
64789;SDS011;51223;51.816;5.862;2022-10-18T14:46:25;0.20;;;0.20;;
64789;SDS011;51223;51.816;5.862;2022-10-18T14:48:52;2.65;;;0.40;;
64789;SDS011;51223;51.816;5.862;2022-10-18T14:51:26;2.55;;;0.52;;
64789;SDS011;51223;51.816;5.862;2022-10-18T14:53:54;1.63;;;0.32;;
64789;SDS011;51223;51.816;5.862;2022-10-18T14:58:57;3.83;;;0.73;;
64789;SDS011;51223;51.816;5.862;2022-10-18T15:01:27;1.63;;;0.35;;
64789;SDS011;51223;51.816;5.862;2022-10-18T15:03:55;0.93;;;0.32;;
64789;SDS011;51223;51.816;5.862;2022-10-18T15:06:23;3.03;;;0.77;;
64789;SDS011;51223;51.816;5.862;2022-10-18T15:08:50;5.60;;;0.68;;
64789;SDS011;51223;51.816;5.862;2022-10-18T15:11:19;1.27;;;0.38;;
64789;SDS011;51223;51.816;5.862;2022-10-18T15:13:49;0.10;;;0.10;;
64789;SDS011;51223;51.816;5.862;2022-10-18T15:16:19;0.17;;;0.10;;
64789;SDS011;51223;51.816;5.862;2022-10-18T15:19:03;1.10;;;0.25;;
64789;SDS011;51223;51.816;5.862;2022-10-18T15:21:29;1.13;;;0.55;;
64789;SDS011;51223;51.816;5.862;2022-10-18T15:24:16;2.28;;;0.65;;
64789;SDS011;51223;51.816;5.862;2022-10-18T15:26:53;0.30;;;0.30;;
64789;SDS011;51223;51.816;5.862;2022-10-18T15:29:23;0.25;;;0.15;;
64789;SDS011;51223;51.816;5.862;2022-10-18T15:31:49;4.47;;;0.65;;
64789;SDS011;51223;51.816;5.862;2022-10-18T15:34:17;0.47;;;0.35;;
64789;SDS011;51223;51.816;5.862;2022-10-18T15:36:44;6.15;;;0.90;;
64789;SDS011;51223;51.816;5.862;2022-10-18T15:39:13;1.40;;;0.75;;
64789;SDS011;51223;51.816;5.862;2022-10-18T15:41:48;6.05;;;0.40;;
64789;SDS011;51223;51.816;5.862;2022-10-18T15:46:45;1.92;;;0.50;;
64789;SDS011;51223;51.816;5.862;2022-10-18T15:49:32;2.08;;;0.65;;
64789;SDS011;51223;51.816;5.862;2022-10-18T15:54:58;3.22;;;1.20;;
64789;SDS011;51223;51.816;5.862;2022-10-18T15:57:25;1.90;;;0.77;;
64789;SDS011;51223;51.816;5.862;2022-10-18T16:02:28;2.40;;;0.77;;
64789;SDS011;51223;51.816;5.862;2022-10-18T16:04:57;1.45;;;0.30;;
64789;SDS011;51223;51.816;5.862;2022-10-18T16:07:23;5.68;;;0.40;;
64789;SDS011;51223;51.816;5.862;2022-10-18T16:09:49;6.55;;;0.77;;
64789;SDS011;51223;51.816;5.862;2022-10-18T16:12:15;1.85;;;1.20;;
64789;SDS011;51223;51.816;5.862;2022-10-18T16:14:41;0.30;;;0.30;;
64789;SDS011;51223;51.816;5.862;2022-10-18T16:17:08;0.20;;;0.20;;
64789;SDS011;51223;51.816;5.862;2022-10-18T16:19:42;0.00;;;0.00;;
64789;SDS011;51223;51.816;5.862;2022-10-18T16:22:10;1.55;;;0.30;;
64789;SDS011;51223;51.816;5.862;2022-10-18T16:24:37;1.15;;;0.50;;
64789;SDS011;51223;51.816;5.862;2022-10-18T16:27:04;0.55;;;0.22;;
64789;SDS011;51223;51.816;5.862;2022-10-18T16:29:30;0.25;;;0.13;;
64789;SDS011;51223;51.816;5.862;2022-10-18T16:31:57;1.33;;;0.40;;
64789;SDS011;51223;51.816;5.862;2022-10-18T16:34:24;2.28;;;0.50;;
64789;SDS011;51223;51.816;5.862;2022-10-18T16:36:53;0.38;;;0.30;;
64789;SDS011;51223;51.816;5.862;2022-10-18T16:39:20;1.75;;;0.20;;
64789;SDS011;51223;51.816;5.862;2022-10-18T16:41:46;1.02;;;0.28;;
64789;SDS011;51223;51.816;5.862;2022-10-18T16:44:12;0.50;;;0.40;;
64789;SDS011;51223;51.816;5.862;2022-10-18T16:46:38;0.77;;;0.30;;
64789;SDS011;51223;51.816;5.862;2022-10-18T16:49:05;0.75;;;0.45;;
64789;SDS011;51223;51.816;5.862;2022-10-18T16:51:31;1.95;;;0.50;;
64789;SDS011;51223;51.816;5.862;2022-10-18T16:53:57;1.33;;;0.55;;
64789;SDS011;51223;51.816;5.862;2022-10-18T16:56:24;0.57;;;0.50;;
64789;SDS011;51223;51.816;5.862;2022-10-18T16:58:53;5.53;;;0.95;;
64789;SDS011;51223;51.816;5.862;2022-10-18T17:01:20;0.45;;;0.38;;
64789;SDS011;51223;51.816;5.862;2022-10-18T17:03:46;1.60;;;0.52;;
64789;SDS011;51223;51.816;5.862;2022-10-18T17:08:49;1.80;;;0.60;;
64789;SDS011;51223;51.816;5.862;2022-10-18T17:11:15;3.90;;;0.40;;
64789;SDS011;51223;51.816;5.862;2022-10-18T17:13:42;1.85;;;0.60;;
64789;SDS011;51223;51.816;5.862;2022-10-18T17:18:53;1.77;;;0.77;;
64789;SDS011;51223;51.816;5.862;2022-10-18T17:21:20;3.08;;;0.80;;
64789;SDS011;51223;51.816;5.862;2022-10-18T17:23:47;7.43;;;1.02;;
64789;SDS011;51223;51.816;5.862;2022-10-18T17:26:13;4.03;;;0.80;;
64789;SDS011;51223;51.816;5.862;2022-10-18T17:28:45;1.20;;;0.60;;
64789;SDS011;51223;51.816;5.862;2022-10-18T17:31:15;0.50;;;0.50;;
64789;SDS011;51223;51.816;5.862;2022-10-18T17:33:40;5.75;;;1.25;;
64789;SDS011;51223;51.816;5.862;2022-10-18T17:36:06;5.38;;;0.80;;